createdAt,value
2018-06-17T00:00:25.466Z,0.00
2018-06-17T00:01:26.046Z,0.00
2018-06-17T00:02:25.421Z,0.00
2018-06-17T00:03:25.602Z,0.00
2018-06-17T00:04:25.372Z,0.00
2018-06-17T00:05:26.048Z,0.00
2018-06-17T00:06:25.390Z,0.00
2018-06-17T00:07:26.059Z,0.00
2018-06-17T00:08:25.284Z,0.00
2018-06-17T00:09:26.049Z,0.00
2018-06-17T00:10:26.098Z,0.00
2018-06-17T00:11:25.602Z,0.00
2018-06-17T00:12:25.187Z,0.00
2018-06-17T00:13:26.051Z,0.00
2018-06-17T00:14:25.135Z,0.00
2018-06-17T00:15:25.110Z,0.00
2018-06-17T00:16:25.144Z,0.00
2018-06-17T00:17:26.050Z,0.00
2018-06-17T00:18:25.039Z,0.00
2018-06-17T00:19:27.552Z,0.00
2018-06-17T00:20:24.996Z,0.00
2018-06-17T00:21:25.014Z,0.00
2018-06-17T00:22:25.556Z,0.00
2018-06-17T00:23:24.922Z,0.00
2018-06-17T00:24:25.105Z,0.00
2018-06-17T00:25:24.873Z,0.00
2018-06-17T00:26:25.555Z,0.00
2018-06-17T00:27:24.828Z,0.00
2018-06-17T00:28:25.563Z,0.00
2018-06-17T00:29:24.821Z,0.00
2018-06-17T00:30:24.760Z,0.00
2018-06-17T00:31:25.552Z,0.00
2018-06-17T00:32:24.708Z,0.00
2018-06-17T00:33:25.555Z,0.00
2018-06-17T00:34:24.704Z,0.00
2018-06-17T00:35:25.553Z,0.00
2018-06-17T00:36:24.613Z,0.00
2018-06-17T00:37:25.556Z,0.00
2018-06-17T00:38:24.565Z,0.00
2018-06-17T00:39:24.582Z,0.00
2018-06-17T00:40:24.516Z,0.00
2018-06-17T00:41:24.492Z,0.00
2018-06-17T00:42:25.054Z,0.00
2018-06-17T00:43:24.441Z,0.00
2018-06-17T00:44:24.613Z,0.00
2018-06-17T00:45:24.438Z,0.00
2018-06-17T00:46:24.370Z,0.00
2018-06-17T00:47:25.057Z,0.00
2018-06-17T00:48:24.377Z,0.00
2018-06-17T00:49:24.300Z,0.00
2018-06-17T00:50:24.294Z,0.00
2018-06-17T00:51:25.065Z,0.00
2018-06-17T00:52:24.265Z,0.00
2018-06-17T00:53:25.061Z,0.00
2018-06-17T00:54:24.178Z,0.00
2018-06-17T00:55:24.200Z,0.00
2018-06-17T00:56:24.129Z,0.00
2018-06-17T00:57:25.058Z,0.00
2018-06-17T00:58:24.139Z,0.00
2018-06-17T00:59:24.559Z,0.00
2018-06-17T01:00:24.036Z,0.00
2018-06-17T01:01:24.115Z,0.00
2018-06-17T01:02:23.984Z,0.00
2018-06-17T01:03:24.115Z,0.00
2018-06-17T01:04:23.943Z,0.00
2018-06-17T01:05:24.560Z,0.00
2018-06-17T01:06:23.889Z,0.00
2018-06-17T01:07:23.947Z,0.00
2018-06-17T01:08:24.115Z,0.00
2018-06-17T01:09:23.827Z,0.00
2018-06-17T01:10:23.791Z,0.00
2018-06-17T01:11:23.820Z,0.00
2018-06-17T01:12:24.563Z,0.00
2018-06-17T01:13:23.719Z,0.00
2018-06-17T01:14:24.568Z,0.00
2018-06-17T01:15:23.684Z,0.00
2018-06-17T01:16:24.118Z,0.00
2018-06-17T01:17:23.623Z,0.00
2018-06-17T01:18:24.562Z,0.00
2018-06-17T01:19:23.572Z,0.00
2018-06-17T01:20:24.062Z,0.00
2018-06-17T01:21:23.571Z,0.00
2018-06-17T01:22:24.066Z,0.00
2018-06-17T01:23:23.479Z,0.00
2018-06-17T01:24:23.449Z,0.00
2018-06-17T01:25:23.432Z,0.00
2018-06-17T01:26:23.621Z,0.00
2018-06-17T01:27:23.374Z,0.00
2018-06-17T01:28:24.064Z,0.00
2018-06-17T01:29:23.370Z,0.00
2018-06-17T01:30:23.312Z,0.00
2018-06-17T01:31:24.077Z,0.00
2018-06-17T01:32:23.261Z,0.00
2018-06-17T01:33:24.067Z,0.00
2018-06-17T01:34:23.246Z,0.00
2018-06-17T01:35:23.624Z,0.00
2018-06-17T01:36:23.153Z,0.00
2018-06-17T01:37:24.079Z,0.00
2018-06-17T01:38:23.104Z,0.00
2018-06-17T01:39:24.068Z,0.00
2018-06-17T01:40:23.101Z,0.00
2018-06-17T01:41:23.029Z,0.00
2018-06-17T01:42:23.576Z,0.00
2018-06-17T01:43:22.993Z,0.00
2018-06-17T01:44:23.571Z,0.00
2018-06-17T01:45:22.996Z,0.00
2018-06-17T01:46:23.569Z,0.00
2018-06-17T01:47:22.883Z,0.00
2018-06-17T01:48:23.569Z,0.00
2018-06-17T01:49:22.833Z,0.00
2018-06-17T01:50:23.127Z,0.00
2018-06-17T01:51:22.789Z,4.00
2018-06-17T01:52:23.571Z,4.00
2018-06-17T01:53:22.790Z,4.00
2018-06-17T01:54:23.569Z,4.00
2018-06-17T01:55:22.687Z,0.00
2018-06-17T01:56:23.576Z,0.00
2018-06-17T01:57:22.646Z,0.00
2018-06-17T01:58:22.667Z,4.00
2018-06-17T01:59:23.572Z,4.00
2018-06-17T02:00:22.564Z,0.00
2018-06-17T02:01:23.069Z,4.00
2018-06-17T02:02:22.516Z,4.00
2018-06-17T02:03:22.624Z,4.00
2018-06-17T02:04:22.464Z,4.00
2018-06-17T02:05:23.081Z,8.00
2018-06-17T02:06:22.414Z,8.00
2018-06-17T02:07:23.072Z,8.00
2018-06-17T02:08:22.406Z,8.00
2018-06-17T02:09:22.382Z,8.00
2018-06-17T02:10:22.312Z,8.00
2018-06-17T02:11:22.297Z,12.00
2018-06-17T02:12:22.266Z,12.00
2018-06-17T02:13:22.243Z,16.00
2018-06-17T02:14:22.273Z,16.00
2018-06-17T02:15:22.189Z,20.00
2018-06-17T02:16:22.175Z,20.00
2018-06-17T02:17:22.141Z,20.00
2018-06-17T02:18:22.115Z,24.00
2018-06-17T02:19:22.138Z,28.00
2018-06-17T02:20:22.064Z,32.00
2018-06-17T02:21:22.040Z,32.00
2018-06-17T02:22:22.017Z,40.00
2018-06-17T02:23:22.039Z,40.00
2018-06-17T02:24:21.971Z,48.00
2018-06-17T02:25:22.007Z,52.00
2018-06-17T02:26:21.920Z,56.00
2018-06-17T02:27:21.890Z,64.00
2018-06-17T02:28:21.879Z,76.00
2018-06-17T02:29:21.842Z,80.00
2018-06-17T02:30:21.882Z,88.00
2018-06-17T02:31:21.793Z,96.00
2018-06-17T02:32:21.785Z,108.00
2018-06-17T02:33:21.744Z,116.00
2018-06-17T02:34:21.729Z,128.00
2018-06-17T02:35:21.749Z,140.00
2018-06-17T02:36:21.672Z,152.00
2018-06-17T02:37:21.656Z,168.00
2018-06-17T02:38:21.621Z,184.00
2018-06-17T02:39:21.597Z,196.00
2018-06-17T02:40:21.627Z,212.00
2018-06-17T02:41:21.584Z,232.00
2018-06-17T02:42:21.566Z,248.00
2018-06-17T02:43:21.524Z,268.00
2018-06-17T02:44:21.524Z,288.00
2018-06-17T02:45:21.446Z,308.00
2018-06-17T02:46:21.424Z,332.00
2018-06-17T02:47:21.403Z,352.00
2018-06-17T02:48:21.388Z,376.00
2018-06-17T02:49:21.386Z,404.00
2018-06-17T02:50:21.335Z,428.00
2018-06-17T02:51:22.084Z,456.00
2018-06-17T02:52:21.309Z,484.00
2018-06-17T02:53:21.248Z,512.00
2018-06-17T02:54:21.222Z,540.00
2018-06-17T02:55:21.241Z,572.00
2018-06-17T02:56:21.179Z,608.00
2018-06-17T02:57:21.226Z,644.00
2018-06-17T02:58:21.123Z,676.00
2018-06-17T02:59:21.100Z,716.00
2018-06-17T03:00:21.073Z,752.00
2018-06-17T03:01:21.103Z,796.00
2018-06-17T03:02:21.024Z,836.00
2018-06-17T03:03:21.588Z,880.00
2018-06-17T03:04:20.975Z,928.00
2018-06-17T03:05:20.949Z,976.00
2018-06-17T03:06:20.980Z,1020.00
2018-06-17T03:07:20.897Z,1072.00
2018-06-17T03:08:20.875Z,1124.00
2018-06-17T03:09:20.849Z,1172.00
2018-06-17T03:10:20.822Z,1228.00
2018-06-17T03:11:20.842Z,1280.00
2018-06-17T03:12:20.775Z,1340.00
2018-06-17T03:13:20.751Z,1400.00
2018-06-17T03:14:20.728Z,1464.00
2018-06-17T03:15:20.739Z,1532.00
2018-06-17T03:16:20.690Z,1600.00
2018-06-17T03:17:20.708Z,1664.00
2018-06-17T03:18:20.622Z,1732.00
2018-06-17T03:19:20.616Z,1804.00
2018-06-17T03:20:20.605Z,1872.00
2018-06-17T03:21:20.555Z,1944.00
2018-06-17T03:22:20.573Z,2016.00
2018-06-17T03:23:20.504Z,2088.00
2018-06-17T03:24:20.474Z,2156.00
2018-06-17T03:25:20.451Z,2228.00
2018-06-17T03:26:20.424Z,2292.00
2018-06-17T03:27:20.438Z,2352.00
2018-06-17T03:28:20.422Z,2420.00
2018-06-17T03:29:20.353Z,2476.00
2018-06-17T03:30:20.324Z,2536.00
2018-06-17T03:31:20.301Z,2596.00
2018-06-17T03:32:20.349Z,2652.00
2018-06-17T03:33:20.250Z,2716.00
2018-06-17T03:34:20.226Z,2780.00
2018-06-17T03:35:20.242Z,2844.00
2018-06-17T03:36:20.175Z,2916.00
2018-06-17T03:37:20.166Z,2988.00
2018-06-17T03:38:20.640Z,3068.00
2018-06-17T03:39:20.099Z,3156.00
2018-06-17T03:40:20.119Z,3244.00
2018-06-17T03:41:20.069Z,3344.00
2018-06-17T03:42:20.600Z,3444.00
2018-06-17T03:43:20.039Z,3548.00
2018-06-17T03:44:19.977Z,3644.00
2018-06-17T03:45:19.998Z,3740.00
2018-06-17T03:46:19.972Z,3852.00
2018-06-17T03:47:19.902Z,3964.00
2018-06-17T03:48:19.936Z,4076.00
2018-06-17T03:49:19.855Z,4184.00
2018-06-17T03:50:19.873Z,4280.00
2018-06-17T03:51:19.845Z,4376.00
2018-06-17T03:52:19.814Z,4464.00
2018-06-17T03:53:19.752Z,4544.00
2018-06-17T03:54:19.731Z,4616.00
2018-06-17T03:55:19.751Z,4692.00
2018-06-17T03:56:19.686Z,4764.00
2018-06-17T03:57:19.660Z,4836.00
2018-06-17T03:58:19.637Z,4900.00
2018-06-17T03:59:19.606Z,4964.00
2018-06-17T04:00:19.627Z,5028.00
2018-06-17T04:01:19.563Z,5108.00
2018-06-17T04:02:19.599Z,5192.00
2018-06-17T04:03:19.513Z,5276.00
2018-06-17T04:04:19.486Z,5356.00
2018-06-17T04:05:19.462Z,5424.00
2018-06-17T04:06:19.438Z,5508.00
2018-06-17T04:07:19.463Z,5608.00
2018-06-17T04:08:19.409Z,5756.00
2018-06-17T04:09:19.365Z,6024.00
2018-06-17T04:10:19.359Z,6064.00
2018-06-17T04:11:19.324Z,5948.00
2018-06-17T04:12:19.357Z,6004.00
2018-06-17T04:13:19.274Z,6104.00
2018-06-17T04:14:19.251Z,6200.00
2018-06-17T04:15:19.224Z,6332.00
2018-06-17T04:16:19.205Z,6460.00
2018-06-17T04:17:19.225Z,6640.00
2018-06-17T04:18:19.150Z,6948.00
2018-06-17T04:19:19.137Z,7464.00
2018-06-17T04:20:19.101Z,8300.00
2018-06-17T04:21:19.081Z,8900.00
2018-06-17T04:22:19.107Z,9352.00
2018-06-17T04:23:19.030Z,9444.00
2018-06-17T04:24:19.011Z,9216.00
2018-06-17T04:25:19.010Z,8860.00
2018-06-17T04:26:18.964Z,8440.00
2018-06-17T04:27:18.980Z,8044.00
2018-06-17T04:28:18.914Z,7628.00
2018-06-17T04:29:18.906Z,7024.00
2018-06-17T04:30:18.911Z,6448.00
2018-06-17T04:31:18.849Z,6068.00
2018-06-17T04:32:18.860Z,5876.00
2018-06-17T04:33:18.801Z,5896.00
2018-06-17T04:34:18.782Z,6096.00
2018-06-17T04:35:18.759Z,6488.00
2018-06-17T04:36:18.729Z,6736.00
2018-06-17T04:37:18.746Z,6888.00
2018-06-17T04:38:18.686Z,7044.00
2018-06-17T04:39:18.665Z,7160.00
2018-06-17T04:40:18.641Z,7252.00
2018-06-17T04:41:18.613Z,7308.00
2018-06-17T04:42:18.640Z,7348.00
2018-06-17T04:43:18.570Z,7360.00
2018-06-17T04:44:18.545Z,7352.00
2018-06-17T04:45:18.571Z,7356.00
2018-06-17T04:46:18.503Z,7408.00
2018-06-17T04:47:18.483Z,7464.00
2018-06-17T04:48:18.458Z,7528.00
2018-06-17T04:49:18.433Z,7572.00
2018-06-17T04:50:18.460Z,7640.00
2018-06-17T04:51:18.386Z,7756.00
2018-06-17T04:52:18.368Z,7836.00
2018-06-17T04:53:18.345Z,7916.00
2018-06-17T04:54:18.325Z,8104.00
2018-06-17T04:55:18.351Z,8300.00
2018-06-17T04:56:18.274Z,8692.00
2018-06-17T04:57:18.251Z,9276.00
2018-06-17T04:58:18.241Z,10372.00
2018-06-17T04:59:18.208Z,12716.00
2018-06-17T05:00:18.232Z,17440.00
2018-06-17T05:01:18.163Z,22048.00
2018-06-17T05:02:18.144Z,23712.00
2018-06-17T05:03:18.118Z,25760.00
2018-06-17T05:04:18.102Z,26368.00
2018-06-17T05:05:18.122Z,25216.00
2018-06-17T05:06:18.059Z,22400.00
2018-06-17T05:07:18.035Z,19776.00
2018-06-17T05:08:18.013Z,19808.00
2018-06-17T05:09:17.999Z,20128.00
2018-06-17T05:10:18.014Z,21632.00
2018-06-17T05:11:17.949Z,26144.00
2018-06-17T05:12:17.931Z,26432.00
2018-06-17T05:13:17.911Z,12432.00
2018-06-17T05:14:17.889Z,23520.00
2018-06-17T05:15:17.924Z,17536.00
2018-06-17T05:16:17.856Z,13780.00
2018-06-17T05:17:18.178Z,9508.00
2018-06-17T05:18:17.840Z,8864.00
2018-06-17T05:19:17.793Z,8420.00
2018-06-17T05:20:17.774Z,8388.00
2018-06-17T05:21:17.802Z,8404.00
2018-06-17T05:22:17.734Z,8496.00
2018-06-17T05:23:17.716Z,8492.00
2018-06-17T05:24:17.698Z,8548.00
2018-06-17T05:25:17.678Z,8716.00
2018-06-17T05:26:17.699Z,9172.00
2018-06-17T05:27:17.641Z,9464.00
2018-06-17T05:28:17.624Z,9748.00
2018-06-17T05:29:17.595Z,9280.00
2018-06-17T05:30:17.579Z,9612.00
2018-06-17T05:31:17.617Z,9556.00
2018-06-17T05:32:17.538Z,9912.00
2018-06-17T05:33:17.521Z,9348.00
2018-06-17T05:34:17.495Z,8572.00
2018-06-17T05:35:17.473Z,8576.00
2018-06-17T05:36:17.498Z,8736.00
2018-06-17T05:37:17.488Z,8648.00
2018-06-17T05:38:17.410Z,8672.00
2018-06-17T05:39:17.388Z,8732.00
2018-06-17T05:40:17.374Z,8792.00
2018-06-17T05:41:17.346Z,8856.00
2018-06-17T05:42:17.389Z,8896.00
2018-06-17T05:43:17.307Z,8928.00
2018-06-17T05:44:17.284Z,8948.00
2018-06-17T05:45:17.260Z,8952.00
2018-06-17T05:46:17.240Z,8964.00
2018-06-17T05:47:17.266Z,8996.00
2018-06-17T05:48:17.194Z,9020.00
2018-06-17T05:49:17.675Z,9028.00
2018-06-17T05:50:17.155Z,9044.00
2018-06-17T05:51:17.135Z,9060.00
2018-06-17T05:52:17.109Z,9032.00
2018-06-17T05:53:17.087Z,9012.00
2018-06-17T05:54:17.125Z,8984.00
2018-06-17T05:55:17.045Z,8992.00
2018-06-17T05:56:17.024Z,9000.00
2018-06-17T05:57:17.628Z,9032.00
2018-06-17T05:58:16.977Z,9072.00
2018-06-17T05:59:17.004Z,9080.00
2018-06-17T06:00:16.938Z,9092.00
2018-06-17T06:01:16.915Z,9104.00
2018-06-17T06:02:16.897Z,9132.00
2018-06-17T06:03:16.870Z,9136.00
2018-06-17T06:04:16.912Z,9144.00
2018-06-17T06:05:16.826Z,9160.00
2018-06-17T06:06:16.810Z,9152.00
2018-06-17T06:07:16.782Z,9152.00
2018-06-17T06:08:16.771Z,9156.00
2018-06-17T06:09:16.779Z,9160.00
2018-06-17T06:10:16.779Z,9188.00
2018-06-17T06:11:16.698Z,9212.00
2018-06-17T06:12:16.674Z,9232.00
2018-06-17T06:13:16.662Z,9276.00
2018-06-17T06:14:16.680Z,9328.00
2018-06-17T06:15:16.612Z,9368.00
2018-06-17T06:16:16.585Z,9416.00
2018-06-17T06:17:16.570Z,9464.00
2018-06-17T06:18:16.546Z,9500.00
2018-06-17T06:19:16.683Z,9568.00
2018-06-17T06:20:16.538Z,9620.00
2018-06-17T06:21:16.478Z,9668.00
2018-06-17T06:22:16.498Z,9708.00
2018-06-17T06:23:16.437Z,9720.00
2018-06-17T06:24:16.414Z,9716.00
2018-06-17T06:25:16.437Z,9700.00
2018-06-17T06:26:16.370Z,9688.00
2018-06-17T06:27:16.347Z,9648.00
2018-06-17T06:28:16.327Z,9612.00
2018-06-17T06:29:16.349Z,9600.00
2018-06-17T06:30:16.328Z,9600.00
2018-06-17T06:31:16.261Z,9612.00
2018-06-17T06:32:16.243Z,9680.00
2018-06-17T06:33:16.221Z,9696.00
2018-06-17T06:34:16.203Z,9724.00
2018-06-17T06:35:16.224Z,9752.00
2018-06-17T06:36:16.153Z,9780.00
2018-06-17T06:37:16.144Z,9820.00
2018-06-17T06:38:16.110Z,9868.00
2018-06-17T06:39:16.092Z,9900.00
2018-06-17T06:40:16.110Z,9944.00
2018-06-17T06:41:16.048Z,9972.00
2018-06-17T06:42:16.027Z,10032.00
2018-06-17T06:43:16.006Z,10088.00
2018-06-17T06:44:15.985Z,10208.00
2018-06-17T06:45:16.015Z,10456.00
2018-06-17T06:46:15.939Z,10772.00
2018-06-17T06:47:15.925Z,11076.00
2018-06-17T06:48:15.906Z,11200.00
2018-06-17T06:49:16.640Z,11136.00
2018-06-17T06:50:15.916Z,10948.00
2018-06-17T06:51:15.831Z,11008.00
2018-06-17T06:52:15.813Z,11544.00
2018-06-17T06:53:15.791Z,11488.00
2018-06-17T06:54:15.768Z,11072.00
2018-06-17T06:55:15.797Z,10504.00
2018-06-17T06:56:15.770Z,10408.00
2018-06-17T06:57:15.716Z,10524.00
2018-06-17T06:58:15.684Z,10572.00
2018-06-17T06:59:15.691Z,10576.00
2018-06-17T07:00:15.640Z,10508.00
2018-06-17T07:01:15.664Z,10520.00
2018-06-17T07:02:15.601Z,10560.00
2018-06-17T07:03:15.594Z,10624.00
2018-06-17T07:04:15.558Z,10636.00
2018-06-17T07:05:15.537Z,10588.00
2018-06-17T07:06:15.574Z,10400.00
2018-06-17T07:07:15.498Z,10520.00
2018-06-17T07:08:15.483Z,10496.00
2018-06-17T07:09:15.468Z,10484.00
2018-06-17T07:10:15.440Z,10504.00
2018-06-17T07:11:15.470Z,10472.00
2018-06-17T07:12:15.399Z,10424.00
2018-06-17T07:13:15.371Z,10352.00
2018-06-17T07:14:15.367Z,10268.00
2018-06-17T07:15:15.333Z,10200.00
2018-06-17T07:16:15.351Z,10144.00
2018-06-17T07:17:15.338Z,10116.00
2018-06-17T07:18:15.267Z,10020.00
2018-06-17T07:19:15.330Z,9956.00
2018-06-17T07:20:15.226Z,9864.00
2018-06-17T07:21:15.202Z,9776.00
2018-06-17T07:22:15.182Z,9728.00
2018-06-17T07:23:15.233Z,9644.00
2018-06-17T07:24:15.181Z,9620.00
2018-06-17T07:25:15.119Z,9576.00
2018-06-17T07:26:15.101Z,9500.00
2018-06-17T07:27:15.120Z,9480.00
2018-06-17T07:28:15.108Z,9476.00
2018-06-17T07:29:15.035Z,9784.00
2018-06-17T07:30:15.021Z,10616.00
2018-06-17T07:31:14.995Z,11200.00
2018-06-17T07:32:15.018Z,11572.00
2018-06-17T07:33:14.954Z,11856.00
2018-06-17T07:34:14.976Z,11340.00
2018-06-17T07:35:14.910Z,11736.00
2018-06-17T07:36:14.893Z,11136.00
2018-06-17T07:37:14.924Z,11264.00
2018-06-17T07:38:14.845Z,11908.00
2018-06-17T07:39:14.825Z,12656.00
2018-06-17T07:40:14.847Z,13728.00
2018-06-17T07:41:14.784Z,13804.00
2018-06-17T07:42:14.810Z,13004.00
2018-06-17T07:43:14.796Z,11324.00
2018-06-17T07:44:14.724Z,10672.00
2018-06-17T07:45:14.709Z,10900.00
2018-06-17T07:46:14.680Z,10700.00
2018-06-17T07:47:14.660Z,10760.00
2018-06-17T07:48:14.684Z,10416.00
2018-06-17T07:49:14.623Z,10080.00
2018-06-17T07:50:14.598Z,9532.00
2018-06-17T07:51:14.579Z,9288.00
2018-06-17T07:52:14.605Z,9140.00
2018-06-17T07:53:14.576Z,9080.00
2018-06-17T07:54:14.517Z,9140.00
2018-06-17T07:55:14.503Z,9140.00
2018-06-17T07:56:14.522Z,9208.00
2018-06-17T07:57:14.461Z,9300.00
2018-06-17T07:58:14.439Z,9304.00
2018-06-17T07:59:14.453Z,9424.00
2018-06-17T08:00:14.393Z,9472.00
2018-06-17T08:01:14.420Z,9436.00
2018-06-17T08:02:14.351Z,9572.00
2018-06-17T08:03:14.331Z,9988.00
2018-06-17T08:04:14.315Z,10420.00
2018-06-17T08:05:14.318Z,10276.00
2018-06-17T08:06:14.319Z,9476.00
2018-06-17T08:07:14.251Z,9572.00
2018-06-17T08:08:14.236Z,9588.00
2018-06-17T08:09:14.205Z,9336.00
2018-06-17T08:10:14.207Z,9272.00
2018-06-17T08:11:14.218Z,9336.00
2018-06-17T08:12:14.148Z,9520.00
2018-06-17T08:13:14.125Z,10032.00
2018-06-17T08:14:14.104Z,11280.00
2018-06-17T08:15:14.086Z,12056.00
2018-06-17T08:16:14.118Z,12988.00
2018-06-17T08:17:14.046Z,13496.00
2018-06-17T08:18:14.028Z,13700.00
2018-06-17T08:19:14.001Z,13328.00
2018-06-17T08:20:14.052Z,12552.00
2018-06-17T08:21:14.006Z,12500.00
2018-06-17T08:22:13.941Z,12216.00
2018-06-17T08:23:13.930Z,11684.00
2018-06-17T08:24:13.903Z,11532.00
2018-06-17T08:25:13.925Z,12996.00
2018-06-17T08:26:13.863Z,15132.00
2018-06-17T08:27:13.892Z,15856.00
2018-06-17T08:28:13.821Z,16432.00
2018-06-17T08:29:14.667Z,15292.00
2018-06-17T08:30:13.835Z,14564.00
2018-06-17T08:31:13.764Z,14348.00
2018-06-17T08:32:13.756Z,13224.00
2018-06-17T08:33:13.760Z,12396.00
2018-06-17T08:34:13.699Z,11784.00
2018-06-17T08:35:13.685Z,11396.00
2018-06-17T08:36:13.662Z,11008.00
2018-06-17T08:37:13.644Z,10764.00
2018-06-17T08:38:13.683Z,10784.00
2018-06-17T08:39:13.603Z,11056.00
2018-06-17T08:40:13.589Z,11532.00
2018-06-17T08:41:14.176Z,12372.00
2018-06-17T08:42:13.541Z,13620.00
2018-06-17T08:43:13.585Z,14932.00
2018-06-17T08:44:13.506Z,16788.00
2018-06-17T08:45:13.489Z,17408.00
2018-06-17T08:46:13.468Z,17060.00
2018-06-17T08:47:13.445Z,16680.00
2018-06-17T08:48:13.467Z,15700.00
2018-06-17T08:49:13.405Z,15180.00
2018-06-17T08:50:13.386Z,14424.00
2018-06-17T08:51:13.368Z,12576.00
2018-06-17T08:52:13.348Z,11772.00
2018-06-17T08:53:13.373Z,11668.00
2018-06-17T08:54:13.332Z,11752.00
2018-06-17T08:55:13.288Z,11556.00
2018-06-17T08:56:13.739Z,11204.00
2018-06-17T08:57:13.249Z,10864.00
2018-06-17T08:58:13.242Z,10636.00
2018-06-17T08:59:13.258Z,10348.00
2018-06-17T09:00:14.182Z,9972.00
2018-06-17T09:01:13.216Z,9816.00
2018-06-17T09:02:13.157Z,9448.00
2018-06-17T09:03:13.162Z,9304.00
2018-06-17T09:04:13.202Z,9192.00
2018-06-17T09:05:13.095Z,9132.00
2018-06-17T09:06:13.074Z,9232.00
2018-06-17T09:07:13.059Z,9084.00
2018-06-17T09:08:13.045Z,8880.00
2018-06-17T09:09:13.080Z,8748.00
2018-06-17T09:10:13.011Z,8688.00
2018-06-17T09:11:12.977Z,8732.00
2018-06-17T09:12:12.967Z,8780.00
2018-06-17T09:13:12.937Z,8804.00
2018-06-17T09:14:12.980Z,8580.00
2018-06-17T09:15:12.899Z,8820.00
2018-06-17T09:16:12.896Z,9040.00
2018-06-17T09:17:12.861Z,9296.00
2018-06-17T09:18:12.843Z,9564.00
2018-06-17T09:19:12.871Z,9828.00
2018-06-17T09:20:12.806Z,10488.00
2018-06-17T09:21:12.789Z,11244.00
2018-06-17T09:22:12.830Z,11264.00
2018-06-17T09:23:12.751Z,11048.00
2018-06-17T09:24:12.741Z,10892.00
2018-06-17T09:25:12.754Z,10880.00
2018-06-17T09:26:12.708Z,10448.00
2018-06-17T09:27:12.731Z,10956.00
2018-06-17T09:28:12.648Z,11004.00
2018-06-17T09:29:12.629Z,10760.00
2018-06-17T09:30:12.608Z,10432.00
2018-06-17T09:31:12.663Z,10480.00
2018-06-17T09:32:12.598Z,10116.00
2018-06-17T09:33:12.560Z,9832.00
2018-06-17T09:34:12.531Z,9716.00
2018-06-17T09:35:12.509Z,9952.00
2018-06-17T09:36:12.541Z,9828.00
2018-06-17T09:37:12.516Z,9764.00
2018-06-17T09:38:12.454Z,9860.00
2018-06-17T09:39:12.434Z,10208.00
2018-06-17T09:40:12.415Z,11248.00
2018-06-17T09:41:12.441Z,10828.00
2018-06-17T09:42:12.392Z,10744.00
2018-06-17T09:43:12.357Z,11764.00
2018-06-17T09:44:12.341Z,11904.00
2018-06-17T09:45:12.771Z,11896.00
2018-06-17T09:46:12.298Z,12776.00
2018-06-17T09:47:12.283Z,13716.00
2018-06-17T09:48:12.260Z,14744.00
2018-06-17T09:49:13.303Z,14296.00
2018-06-17T09:50:12.221Z,13780.00
2018-06-17T09:51:12.281Z,12476.00
2018-06-17T09:52:12.219Z,10864.00
2018-06-17T09:53:12.180Z,9996.00
2018-06-17T09:54:12.225Z,9396.00
2018-06-17T09:55:12.165Z,10616.00
2018-06-17T09:56:12.725Z,11664.00
2018-06-17T09:57:12.087Z,10536.00
2018-06-17T09:58:12.071Z,9408.00
2018-06-17T09:59:12.118Z,9708.00
2018-06-17T10:00:12.034Z,10340.00
2018-06-17T10:01:12.029Z,11164.00
2018-06-17T10:02:11.991Z,11500.00
2018-06-17T10:03:13.104Z,11684.00
2018-06-17T10:04:11.999Z,11628.00
2018-06-17T10:05:12.252Z,11128.00
2018-06-17T10:06:11.967Z,10540.00
2018-06-17T10:07:11.896Z,12636.00
2018-06-17T10:08:11.877Z,14516.00
2018-06-17T10:09:11.856Z,14204.00
2018-06-17T10:10:11.839Z,13332.00
2018-06-17T10:11:11.866Z,13728.00
2018-06-17T10:12:11.800Z,14092.00
2018-06-17T10:13:11.785Z,14500.00
2018-06-17T10:14:11.773Z,14296.00
2018-06-17T10:15:11.741Z,13460.00
2018-06-17T10:16:11.776Z,12308.00
2018-06-17T10:17:11.722Z,11048.00
2018-06-17T10:18:11.694Z,10448.00
2018-06-17T10:19:11.677Z,11088.00
2018-06-17T10:20:11.673Z,11212.00
2018-06-17T10:21:11.696Z,12024.00
2018-06-17T10:22:11.611Z,11248.00
2018-06-17T10:23:11.590Z,12100.00
2018-06-17T10:24:11.587Z,14528.00
2018-06-17T10:25:11.548Z,14032.00
2018-06-17T10:26:11.782Z,13820.00
2018-06-17T10:27:11.556Z,13252.00
2018-06-17T10:28:11.493Z,14208.00
2018-06-17T10:29:11.476Z,13884.00
2018-06-17T10:30:11.453Z,11960.00
2018-06-17T10:31:11.435Z,10700.00
2018-06-17T10:32:11.480Z,11552.00
2018-06-17T10:33:11.408Z,11428.00
2018-06-17T10:34:11.376Z,9992.00
2018-06-17T10:35:11.362Z,9244.00
2018-06-17T10:36:11.364Z,9484.00
2018-06-17T10:37:11.357Z,9236.00
2018-06-17T10:38:11.343Z,9372.00
2018-06-17T10:39:11.328Z,9240.00
2018-06-17T10:40:11.274Z,9000.00
2018-06-17T10:41:11.247Z,9104.00
2018-06-17T10:42:11.227Z,9872.00
2018-06-17T10:43:11.249Z,10804.00
2018-06-17T10:44:11.230Z,11180.00
2018-06-17T10:45:11.229Z,11944.00
2018-06-17T10:46:11.192Z,13204.00
2018-06-17T10:47:11.129Z,14476.00
2018-06-17T10:48:11.118Z,15188.00
2018-06-17T10:49:11.179Z,15476.00
2018-06-17T10:50:11.077Z,16420.00
2018-06-17T10:51:11.048Z,16108.00
2018-06-17T10:52:11.035Z,15880.00
2018-06-17T10:53:11.008Z,17664.00
2018-06-17T10:54:11.035Z,18784.00
2018-06-17T10:55:10.971Z,18880.00
2018-06-17T10:56:10.978Z,18560.00
2018-06-17T10:57:10.932Z,17344.00
2018-06-17T10:58:10.935Z,16320.00
2018-06-17T10:59:10.944Z,16960.00
2018-06-17T11:00:10.884Z,19360.00
2018-06-17T11:01:10.858Z,19872.00
2018-06-17T11:02:10.839Z,19968.00
2018-06-17T11:03:10.823Z,19104.00
2018-06-17T11:04:11.268Z,18080.00
2018-06-17T11:05:10.855Z,18208.00
2018-06-17T11:06:10.810Z,17728.00
2018-06-17T11:07:10.742Z,16960.00
2018-06-17T11:08:10.726Z,16552.00
2018-06-17T11:09:10.712Z,17664.00
2018-06-17T11:10:10.688Z,17856.00
2018-06-17T11:11:10.762Z,18432.00
2018-06-17T11:12:10.654Z,18880.00
2018-06-17T11:13:10.682Z,18656.00
2018-06-17T11:14:10.690Z,19104.00
2018-06-17T11:15:10.602Z,18752.00
2018-06-17T11:16:10.599Z,18912.00
2018-06-17T11:17:10.563Z,18976.00
2018-06-17T11:18:10.546Z,19712.00
2018-06-17T11:19:10.571Z,17888.00
2018-06-17T11:20:10.506Z,18048.00
2018-06-17T11:21:10.485Z,18912.00
2018-06-17T11:22:10.517Z,19392.00
2018-06-17T11:23:10.463Z,18688.00
2018-06-17T11:24:10.437Z,19072.00
2018-06-17T11:25:10.413Z,19808.00
2018-06-17T11:26:10.456Z,19968.00
2018-06-17T11:27:10.389Z,20608.00
2018-06-17T11:28:10.363Z,21984.00
2018-06-17T11:29:10.343Z,21536.00
2018-06-17T11:30:10.326Z,21312.00
2018-06-17T11:31:10.355Z,20544.00
2018-06-17T11:32:10.306Z,19360.00
2018-06-17T11:33:10.284Z,19648.00
2018-06-17T11:34:10.257Z,20288.00
2018-06-17T11:35:10.242Z,20064.00
2018-06-17T11:36:11.229Z,20256.00
2018-06-17T11:37:10.204Z,19808.00
2018-06-17T11:38:10.191Z,18112.00
2018-06-17T11:39:10.308Z,17312.00
2018-06-17T11:40:10.158Z,16768.00
2018-06-17T11:41:10.184Z,16400.00
2018-06-17T11:42:10.117Z,16388.00
2018-06-17T11:43:10.097Z,17312.00
2018-06-17T11:44:10.084Z,14692.00
2018-06-17T11:45:10.066Z,15884.00
2018-06-17T11:46:10.102Z,17088.00
2018-06-17T11:47:10.031Z,18080.00
2018-06-17T11:48:10.105Z,17760.00
2018-06-17T11:49:10.051Z,16800.00
2018-06-17T11:50:09.985Z,16528.00
2018-06-17T11:51:09.961Z,17052.00
2018-06-17T11:52:09.945Z,16748.00
2018-06-17T11:53:09.925Z,16464.00
2018-06-17T11:54:09.955Z,16600.00
2018-06-17T11:55:09.890Z,17504.00
2018-06-17T11:56:09.874Z,17440.00
2018-06-17T11:57:09.857Z,18240.00
2018-06-17T11:58:09.877Z,19264.00
2018-06-17T11:59:09.822Z,18720.00
2018-06-17T12:00:09.802Z,19232.00
2018-06-17T12:01:09.789Z,15360.00
2018-06-17T12:02:09.786Z,14056.00
2018-06-17T12:03:09.827Z,13960.00
2018-06-17T12:04:10.245Z,14420.00
2018-06-17T12:05:09.718Z,14692.00
2018-06-17T12:06:09.812Z,15188.00
2018-06-17T12:07:09.681Z,15428.00
2018-06-17T12:08:09.669Z,15712.00
2018-06-17T12:09:09.645Z,17536.00
2018-06-17T12:10:09.628Z,20000.00
2018-06-17T12:11:09.664Z,21440.00